Time;durP1;ratioP1;P1;durP2;ratioP2;P2;SDS_P1;SDS_P2;PMS_P1;PMS_P2;Temp;Humidity;BMP_temperature;BMP_pressure;BME280_temperature;BME280_humidity;BME280_pressure;Samples;Min_cycle;Max_cycle;Signal;HPM_P1;HPM_P2
2023/06/16 00:01:40;;;;;;;5.20;3.38;;;17.30;73.00;;;;;;5027238;28;20040;-75
2023/06/16 00:04:06;;;;;;;7.00;3.80;;;17.30;73.00;;;;;;5021684;28;20029;-73
2023/06/16 00:06:31;;;;;;;5.30;2.92;;;17.30;73.00;;;;;;5021984;28;20026;-75
2023/06/16 00:08:58;;;;;;;4.03;3.33;;;17.30;72.90;;;;;;5020916;28;20082;-75
2023/06/16 00:11:28;;;;;;;7.00;2.58;;;17.30;72.90;;;;;;5023269;28;20448;-73
2023/06/16 00:13:55;;;;;;;4.35;3.00;;;17.30;73.00;;;;;;5024707;28;20025;-72
2023/06/16 00:16:22;;;;;;;4.40;3.25;;;17.30;73.00;;;;;;5026100;28;20178;-74
2023/06/16 00:18:51;;;;;;;9.93;3.35;;;17.30;73.10;;;;;;5024343;28;20021;-74
2023/06/16 00:21:29;;;;;;;4.53;3.28;;;17.30;73.20;;;;;;5018852;28;20103;-74
2023/06/16 00:23:56;;;;;;;6.63;3.17;;;17.30;73.30;;;;;;5024113;28;20377;-76
2023/06/16 00:26:23;;;;;;;4.18;3.55;;;17.30;73.20;;;;;;5021794;28;20021;-74
2023/06/16 00:28:49;;;;;;;6.22;3.70;;;17.30;73.20;;;;;;5027667;28;20476;-74
2023/06/16 00:31:15;;;;;;;6.32;3.35;;;17.30;73.20;;;;;;5022357;28;20112;-74
2023/06/16 00:33:41;;;;;;;4.30;2.95;;;17.30;73.20;;;;;;5026006;28;20029;-73
2023/06/16 00:36:06;;;;;;;6.95;3.83;;;17.30;73.20;;;;;;5028776;28;20484;-74
2023/06/16 00:38:33;;;;;;;4.22;3.45;;;17.30;73.20;;;;;;5023620;28;20449;-74
2023/06/16 00:40:59;;;;;;;4.57;3.55;;;17.20;73.30;;;;;;5023351;28;20065;-72
2023/06/16 00:43:25;;;;;;;5.38;3.40;;;17.20;73.50;;;;;;5025884;28;20029;-74
2023/06/16 00:45:51;;;;;;;4.47;3.25;;;17.20;73.60;;;;;;5024354;28;20032;-74
2023/06/16 00:48:17;;;;;;;5.15;3.10;;;17.20;73.70;;;;;;5024311;28;20033;-76
2023/06/16 00:50:43;;;;;;;3.97;3.38;;;17.20;73.60;;;;;;5021847;28;20056;-77
2023/06/16 00:53:09;;;;;;;4.38;3.42;;;17.20;73.60;;;;;;5017326;28;20033;-77
2023/06/16 00:55:35;;;;;;;6.72;3.55;;;17.20;73.60;;;;;;5020879;28;20040;-76
2023/06/16 00:58:03;;;;;;;4.85;3.28;;;17.20;73.70;;;;;;5021455;28;20022;-76
2023/06/16 01:00:31;;;;;;;5.07;3.55;;;17.20;73.80;;;;;;5019660;28;20022;-76
2023/06/16 01:02:57;;;;;;;4.70;3.20;;;17.10;73.90;;;;;;5020427;28;20024;-76
2023/06/16 01:05:24;;;;;;;4.55;3.20;;;17.10;74.00;;;;;;5024409;28;20120;-77
2023/06/16 01:07:59;;;;;;;6.43;3.47;;;17.10;74.20;;;;;;5024351;28;20075;-76
2023/06/16 01:10:42;;;;;;;4.13;3.45;;;17.10;74.30;;;;;;5028468;28;20026;-77
2023/06/16 01:13:52;;;;;;;4.85;3.30;;;17.10;74.20;;;;;;5029653;28;20032;-77
2023/06/16 01:16:22;;;;;;;6.47;3.47;;;17.00;74.40;;;;;;4987692;28;20029;-76
2023/06/16 01:18:51;;;;;;;7.00;3.83;;;17.00;74.60;;;;;;5015648;28;20140;-76
2023/06/16 01:21:54;;;;;;;4.47;3.03;;;16.90;74.80;;;;;;5025925;28;20021;-76
2023/06/16 01:24:24;;;;;;;4.68;3.83;;;16.90;75.00;;;;;;5025367;28;20057;-76
2023/06/16 01:26:52;;;;;;;7.07;3.58;;;16.90;75.20;;;;;;5026689;28;20057;-76
2023/06/16 01:29:21;;;;;;;5.07;3.42;;;16.90;75.50;;;;;;5024047;28;20031;-76
2023/06/16 01:31:50;;;;;;;4.70;3.60;;;16.90;75.70;;;;;;5023882;28;20465;-77
2023/06/16 01:34:17;;;;;;;4.90;3.75;;;16.90;75.80;;;;;;5019930;28;20017;-76
2023/06/16 01:36:44;;;;;;;5.78;3.15;;;16.80;76.10;;;;;;5023621;28;20029;-76
2023/06/16 01:39:13;;;;;;;5.78;3.55;;;16.80;77.00;;;;;;5020246;28;20030;-76
2023/06/16 01:41:39;;;;;;;4.15;3.65;;;16.80;76.50;;;;;;5022904;28;20021;-74
2023/06/16 01:44:06;;;;;;;5.38;3.38;;;16.80;76.70;;;;;;5019671;28;20412;-74
2023/06/16 01:46:33;;;;;;;6.10;3.55;;;16.70;76.70;;;;;;5024093;28;20091;-75
2023/06/16 01:48:58;;;;;;;4.40;3.30;;;16.70;76.90;;;;;;5022086;28;20113;-75
2023/06/16 01:51:25;;;;;;;5.30;3.13;;;16.60;77.00;;;;;;5022717;28;20207;-75
2023/06/16 01:53:51;;;;;;;5.45;3.20;;;16.60;77.20;;;;;;5022828;28;20176;-75
2023/06/16 01:56:17;;;;;;;8.02;3.92;;;16.50;77.80;;;;;;5023017;28;20104;-75
2023/06/16 01:58:43;;;;;;;5.47;3.60;;;16.50;77.10;;;;;;5020537;28;20100;-75
2023/06/16 02:01:16;;;;;;;6.75;4.18;;;16.50;77.00;;;;;;5025970;28;20407;-74
2023/06/16 02:03:52;;;;;;;4.72;3.80;;;16.50;76.90;;;;;;5027718;28;20055;-74
2023/06/16 02:06:27;;;;;;;4.32;3.25;;;16.50;76.90;;;;;;5029638;28;20056;-75
2023/06/16 02:08:55;;;;;;;11.00;3.90;;;16.40;77.00;;;;;;5024563;28;20025;-75
2023/06/16 02:11:21;;;;;;;7.00;4.05;;;16.40;77.00;;;;;;5022098;28;20033;-75
2023/06/16 02:13:48;;;;;;;5.60;4.03;;;16.40;77.30;;;;;;5024690;28;20060;-74
2023/06/16 02:16:14;;;;;;;6.55;3.65;;;16.40;77.50;;;;;;5027609;28;20457;-74
2023/06/16 02:18:40;;;;;;;4.63;3.53;;;16.30;77.60;;;;;;5021291;28;20036;-76
2023/06/16 02:21:05;;;;;;;5.25;4.10;;;16.30;77.70;;;;;;5023682;28;20044;-75
2023/06/16 02:23:31;;;;;;;5.00;3.42;;;16.30;77.90;;;;;;5028689;28;20021;-75
2023/06/16 02:25:57;;;;;;;5.50;3.50;;;16.30;78.10;;;;;;5025190;28;20033;-75
2023/06/16 02:28:22;;;;;;;6.68;3.53;;;16.20;78.20;;;;;;5026692;28;20037;-75
2023/06/16 02:30:48;;;;;;;4.35;3.55;;;16.20;78.30;;;;;;5024657;28;20436;-75
2023/06/16 02:33:15;;;;;;;6.25;4.13;;;16.20;78.30;;;;;;5019540;28;20552;-75
2023/06/16 02:35:41;;;;;;;5.28;3.85;;;16.20;78.40;;;;;;5027340;28;20031;-76
2023/06/16 02:38:07;;;;;;;4.38;3.42;;;16.20;78.60;;;;;;5026226;28;20430;-75
2023/06/16 02:40:33;;;;;;;5.35;4.15;;;16.20;78.60;;;;;;5026433;28;20021;-75
2023/06/16 02:43:00;;;;;;;6.43;3.47;;;16.20;78.60;;;;;;5039075;28;20077;-75
2023/06/16 02:45:26;;;;;;;4.43;3.58;;;16.10;78.50;;;;;;5028359;28;20094;-76
2023/06/16 02:47:51;;;;;;;5.22;3.40;;;16.10;78.60;;;;;;5027875;28;20109;-74
2023/06/16 02:50:17;;;;;;;7.50;4.43;;;16.10;78.80;;;;;;5026209;28;20133;-76
2023/06/16 02:52:43;;;;;;;5.28;4.00;;;16.10;78.80;;;;;;5023435;28;20499;-75
2023/06/16 02:55:09;;;;;;;6.22;4.05;;;16.10;78.70;;;;;;5024635;28;20040;-75
2023/06/16 02:57:35;;;;;;;6.30;3.63;;;16.10;78.70;;;;;;5026827;28;20025;-75
2023/06/16 03:00:01;;;;;;;8.30;4.18;;;16.10;78.70;;;;;;5028086;28;20064;-76
2023/06/16 03:02:26;;;;;;;5.13;3.90;;;16.10;78.80;;;;;;5024966;28;20052;-76
2023/06/16 03:04:52;;;;;;;5.95;3.88;;;16.10;79.20;;;;;;5026496;28;20424;-75
2023/06/16 03:07:19;;;;;;;6.18;3.80;;;16.10;79.40;;;;;;5028597;28;20057;-75
2023/06/16 03:09:45;;;;;;;5.65;3.72;;;16.00;79.50;;;;;;5023884;28;20145;-75
2023/06/16 03:12:11;;;;;;;4.93;3.58;;;16.00;79.70;;;;;;5025011;28;20018;-74
2023/06/16 03:14:37;;;;;;;4.68;3.72;;;16.00;79.80;;;;;;5025973;28;20036;-75
2023/06/16 03:17:03;;;;;;;4.88;3.92;;;16.00;79.80;;;;;;5042098;28;20022;-75
2023/06/16 03:19:28;;;;;;;5.03;3.60;;;15.90;79.90;;;;;;5026972;28;20120;-75
2023/06/16 03:21:54;;;;;;;6.68;4.00;;;15.90;80.10;;;;;;5026266;28;20037;-75
2023/06/16 03:24:20;;;;;;;5.07;4.15;;;15.80;80.00;;;;;;5023969;28;20037;-75
2023/06/16 03:26:46;;;;;;;6.22;3.78;;;15.80;80.10;;;;;;5018657;28;20041;-75
2023/06/16 03:29:12;;;;;;;8.63;3.88;;;15.80;80.20;;;;;;5027219;28;20031;-76
2023/06/16 03:31:38;;;;;;;6.65;3.78;;;15.80;80.30;;;;;;5025327;28;20029;-76
2023/06/16 03:34:05;;;;;;;6.40;3.63;;;15.70;80.40;;;;;;5020338;28;20540;-75
2023/06/16 03:36:36;;;;;;;6.43;4.10;;;15.70;80.50;;;;;;5023980;28;20476;-75
2023/06/16 03:39:05;;;;;;;5.25;3.90;;;15.70;80.60;;;;;;5025867;28;20116;-75
2023/06/16 03:41:32;;;;;;;7.22;4.07;;;15.60;80.70;;;;;;5026502;28;20026;-76
2023/06/16 03:43:58;;;;;;;6.05;4.13;;;15.70;80.90;;;;;;5022031;28;20083;-75
2023/06/16 03:46:24;;;;;;;6.68;4.28;;;15.60;81.10;;;;;;5020036;28;20638;-75
2023/06/16 03:48:49;;;;;;;4.75;3.92;;;15.60;81.10;;;;;;5025285;28;20029;-75
2023/06/16 03:51:16;;;;;;;4.55;3.75;;;15.50;81.10;;;;;;5028483;28;20026;-75
2023/06/16 03:53:42;;;;;;;4.93;4.10;;;15.60;81.20;;;;;;5022045;28;20213;-76
2023/06/16 03:56:07;;;;;;;5.40;3.70;;;15.50;81.30;;;;;;5021997;28;20136;-75
2023/06/16 03:58:33;;;;;;;5.70;4.22;;;15.60;81.30;;;;;;5023356;28;20575;-76
2023/06/16 04:00:59;;;;;;;5.60;4.13;;;15.60;81.20;;;;;;5018612;28;20069;-77
2023/06/16 04:03:27;;;;;;;7.72;3.90;;;15.50;81.20;;;;;;5020497;28;20420;-77
2023/06/16 04:05:54;;;;;;;5.63;3.90;;;15.50;81.10;;;;;;5024055;28;20083;-76
2023/06/16 04:08:20;;;;;;;6.50;4.30;;;15.60;81.40;;;;;;5025069;28;20041;-75
2023/06/16 04:10:46;;;;;;;7.32;4.63;;;15.60;81.50;;;;;;5019988;28;20030;-77
2023/06/16 04:13:12;;;;;;;5.95;4.18;;;15.60;81.50;;;;;;5014273;28;20029;-74
2023/06/16 04:15:37;;;;;;;4.95;4.07;;;15.50;81.30;;;;;;5018889;28;20030;-75
2023/06/16 04:18:03;;;;;;;4.80;4.03;;;15.60;81.40;;;;;;5020455;28;20427;-74
2023/06/16 04:20:29;;;;;;;7.00;4.40;;;15.60;81.60;;;;;;5022292;28;20083;-76
2023/06/16 04:22:55;;;;;;;5.00;4.07;;;15.60;81.40;;;;;;5017827;28;20389;-77
2023/06/16 04:25:22;;;;;;;7.00;3.72;;;15.60;81.50;;;;;;5017495;28;20025;-73
2023/06/16 04:27:49;;;;;;;5.18;4.35;;;15.60;81.60;;;;;;5019677;28;20064;-74
2023/06/16 04:30:20;;;;;;;7.53;4.60;;;15.60;81.50;;;;;;5021568;28;20420;-74
2023/06/16 04:32:46;;;;;;;8.45;4.40;;;15.60;81.50;;;;;;5021429;28;20178;-74
2023/06/16 04:35:11;;;;;;;6.75;4.20;;;15.60;81.60;;;;;;5021576;28;20494;-74
2023/06/16 04:37:38;;;;;;;6.38;3.70;;;15.60;81.70;;;;;;5020717;28;20029;-74
2023/06/16 04:40:07;;;;;;;5.47;4.15;;;15.60;81.60;;;;;;5017957;28;20032;-74
2023/06/16 04:42:34;;;;;;;5.40;3.80;;;15.70;81.60;;;;;;5023793;28;20040;-74
2023/06/16 04:45:00;;;;;;;6.60;4.32;;;15.70;82.20;;;;;;5020697;28;20367;-66
2023/06/16 04:47:26;;;;;;;7.15;5.05;;;15.80;81.70;;;;;;5019834;28;20021;-66
2023/06/16 04:49:51;;;;;;;16.27;5.03;;;15.90;82.00;;;;;;5026923;28;20021;-66
2023/06/16 04:52:17;;;;;;;7.32;4.38;;;16.00;82.20;;;;;;5025167;28;20029;-66
2023/06/16 04:54:43;;;;;;;6.47;4.82;;;16.20;82.10;;;;;;5021079;28;24239;-67
2023/06/16 04:57:08;;;;;;;10.80;4.95;;;16.30;81.90;;;;;;5024892;28;20155;-68
2023/06/16 04:59:35;;;;;;;7.00;4.57;;;16.30;81.40;;;;;;5024143;28;20045;-67
2023/06/16 05:02:00;;;;;;;7.90;3.85;;;16.50;80.80;;;;;;5019536;28;20021;-67
2023/06/16 05:04:26;;;;;;;7.53;4.50;;;16.50;80.50;;;;;;5023082;28;20072;-67
2023/06/16 05:06:52;;;;;;;6.20;4.47;;;16.60;80.20;;;;;;5019864;28;20373;-67
2023/06/16 05:09:20;;;;;;;4.72;4.07;;;16.70;79.80;;;;;;5023160;28;20091;-67
2023/06/16 05:11:46;;;;;;;6.78;4.20;;;16.70;80.10;;;;;;5019516;28;20036;-67
2023/06/16 05:14:11;;;;;;;6.30;4.00;;;16.80;79.30;;;;;;5021535;28;20033;-68
2023/06/16 05:16:37;;;;;;;9.00;4.60;;;16.90;79.30;;;;;;5022348;28;20026;-69
2023/06/16 05:19:03;;;;;;;11.10;4.95;;;17.00;79.20;;;;;;5022068;28;20060;-68
2023/06/16 05:21:28;;;;;;;6.05;4.32;;;17.10;79.10;;;;;;5011394;28;20026;-69
2023/06/16 05:23:54;;;;;;;8.25;4.28;;;17.10;79.00;;;;;;5024949;28;20511;-69
2023/06/16 05:26:24;;;;;;;7.63;4.55;;;17.20;78.80;;;;;;5025720;28;20030;-73
2023/06/16 05:28:49;;;;;;;6.72;4.32;;;17.30;78.70;;;;;;5025984;28;20021;-74
2023/06/16 05:31:15;;;;;;;6.57;4.45;;;17.50;78.50;;;;;;5026684;28;20037;-74
2023/06/16 05:33:41;;;;;;;5.75;4.25;;;17.60;78.40;;;;;;5022235;28;20017;-75
2023/06/16 05:36:07;;;;;;;5.65;3.75;;;17.60;78.30;;;;;;5028038;28;20029;-75
2023/06/16 05:38:33;;;;;;;8.80;4.85;;;17.70;77.90;;;;;;5025684;28;20029;-74
2023/06/16 05:40:58;;;;;;;8.07;4.22;;;17.80;77.80;;;;;;5026177;28;20120;-74
2023/06/16 05:43:24;;;;;;;12.70;4.75;;;17.90;77.50;;;;;;5025127;28;20108;-73
2023/06/16 05:45:50;;;;;;;10.18;4.85;;;18.00;77.40;;;;;;5028719;28;20032;-77
2023/06/16 05:48:15;;;;;;;7.32;3.90;;;18.10;77.10;;;;;;5030250;28;20372;-76
2023/06/16 05:50:41;;;;;;;5.32;4.22;;;18.20;77.00;;;;;;5029896;28;20057;-77
2023/06/16 05:53:07;;;;;;;15.77;6.10;;;18.30;76.80;;;;;;5024783;28;20021;-77
2023/06/16 05:55:33;;;;;;;11.00;5.93;;;18.40;76.50;;;;;;5030952;28;20091;-76
2023/06/16 05:58:00;;;;;;;12.18;6.65;;;18.50;76.60;;;;;;5027384;28;20029;-77
2023/06/16 06:00:26;;;;;;;10.45;6.07;;;18.60;76.40;;;;;;5024050;28;20383;-75
2023/06/16 06:02:51;;;;;;;9.90;6.00;;;18.60;76.40;;;;;;5024380;28;20036;-76
2023/06/16 06:05:17;;;;;;;12.73;6.38;;;18.70;76.30;;;;;;5026804;28;20037;-76
2023/06/16 06:07:43;;;;;;;7.32;5.60;;;18.80;76.30;;;;;;5030747;28;20044;-77
2023/06/16 06:10:09;;;;;;;12.30;6.40;;;18.90;76.30;;;;;;5027823;28;20022;-76
2023/06/16 06:12:37;;;;;;;8.82;5.95;;;18.90;76.00;;;;;;5026650;28;20523;-75
2023/06/16 06:15:03;;;;;;;9.73;6.53;;;19.00;75.90;;;;;;5028550;28;20037;-76
2023/06/16 06:17:29;;;;;;;13.07;6.30;;;19.10;75.70;;;;;;5022919;28;20033;-75
2023/06/16 06:19:54;;;;;;;10.23;6.88;;;19.10;75.70;;;;;;5027970;28;20456;-74
2023/06/16 06:22:20;;;;;;;8.60;5.65;;;19.20;75.70;;;;;;5024996;28;20030;-74
2023/06/16 06:24:46;;;;;;;12.18;6.65;;;19.20;76.00;;;;;;5025382;28;20041;-75
2023/06/16 06:27:12;;;;;;;13.20;6.63;;;19.30;75.50;;;;;;5020649;28;20036;-73
2023/06/16 06:29:38;;;;;;;10.98;6.00;;;19.40;75.40;;;;;;5019435;28;20795;-73
2023/06/16 06:32:07;;;;;;;9.50;5.78;;;19.40;75.40;;;;;;5026229;28;20037;-73
2023/06/16 06:34:34;;;;;;;122.85;11.38;;;19.50;75.10;;;;;;5022407;28;20055;-73
2023/06/16 06:36:59;;;;;;;147.95;12.85;;;19.60;75.10;;;;;;5021243;28;20025;-73
2023/06/16 06:39:25;;;;;;;40.95;7.00;;;19.70;74.80;;;;;;5025601;28;20117;-74
2023/06/16 06:41:50;;;;;;;58.28;11.43;;;19.80;74.50;;;;;;5029092;28;20044;-73
2023/06/16 06:44:16;;;;;;;29.75;7.82;;;19.80;73.60;;;;;;5022606;28;20029;-74
2023/06/16 06:46:41;;;;;;;176.52;30.02;;;20.00;73.40;;;;;;5022838;28;20029;-74
2023/06/16 06:49:07;;;;;;;32.63;8.02;;;20.00;73.20;;;;;;5026333;28;20624;-74
2023/06/16 06:51:33;;;;;;;23.35;6.35;;;20.00;73.30;;;;;;5026094;28;20108;-74
2023/06/16 06:53:58;;;;;;;56.65;8.07;;;20.10;73.40;;;;;;5024529;28;20030;-74
2023/06/16 06:56:24;;;;;;;142.10;27.20;;;20.10;73.30;;;;;;5026562;28;20072;-74
2023/06/16 06:58:49;;;;;;;28.45;9.40;;;20.00;73.10;;;;;;5022809;28;20029;-74
2023/06/16 07:01:15;;;;;;;43.95;10.77;;;20.10;72.90;;;;;;5017610;28;20105;-74
2023/06/16 07:03:41;;;;;;;47.42;12.20;;;20.10;72.90;;;;;;5017325;28;20437;-74
2023/06/16 07:06:06;;;;;;;20.05;7.22;;;20.10;72.80;;;;;;5020992;28;20029;-74
2023/06/16 07:08:32;;;;;;;11.60;4.50;;;20.10;73.00;;;;;;5025344;28;20030;-74
2023/06/16 07:10:59;;;;;;;8.80;4.65;;;20.10;72.90;;;;;;5020399;28;20041;-75
2023/06/16 07:13:24;;;;;;;10.50;5.00;;;20.10;72.60;;;;;;5017278;28;20116;-74
2023/06/16 07:15:50;;;;;;;8.20;4.32;;;20.20;72.60;;;;;;5022566;28;20101;-75
2023/06/16 07:18:16;;;;;;;7.88;4.95;;;20.20;72.20;;;;;;5029213;28;20029;-72
2023/06/16 07:20:41;;;;;;;5.68;3.97;;;20.20;72.30;;;;;;5019163;28;20065;-70
2023/06/16 07:23:07;;;;;;;9.40;4.78;;;20.20;71.70;;;;;;5017031;28;20041;-71
2023/06/16 07:25:36;;;;;;;8.05;4.03;;;20.30;71.80;;;;;;5022732;28;20040;-72
2023/06/16 07:28:03;;;;;;;7.10;3.63;;;20.40;71.50;;;;;;5021160;28;20091;-73
2023/06/16 07:30:29;;;;;;;13.52;4.53;;;20.50;71.30;;;;;;5023044;28;20030;-71
2023/06/16 07:32:55;;;;;;;8.00;4.20;;;20.60;71.60;;;;;;5025015;28;20095;-72
2023/06/16 07:35:21;;;;;;;8.57;4.70;;;20.60;71.20;;;;;;5021969;28;20025;-72
2023/06/16 07:37:47;;;;;;;7.05;3.97;;;20.70;70.90;;;;;;5020708;28;20121;-72
2023/06/16 07:40:13;;;;;;;5.63;4.40;;;20.70;70.70;;;;;;5022059;28;20033;-73
2023/06/16 07:42:40;;;;;;;9.10;3.92;;;20.80;70.60;;;;;;5020662;28;20056;-74
2023/06/16 07:45:06;;;;;;;6.15;3.65;;;20.90;70.60;;;;;;5024120;28;20030;-75
2023/06/16 07:47:32;;;;;;;6.28;3.65;;;21.00;70.10;;;;;;5024289;28;20162;-74
2023/06/16 07:49:58;;;;;;;7.55;4.10;;;21.00;69.10;;;;;;5024493;28;20389;-76
2023/06/16 07:52:23;;;;;;;8.20;3.55;;;21.10;68.20;;;;;;5025853;28;20029;-73
2023/06/16 07:54:49;;;;;;;4.95;3.67;;;21.10;67.90;;;;;;5022690;28;20080;-74
2023/06/16 07:57:15;;;;;;;5.68;3.85;;;21.20;67.80;;;;;;5022597;28;20496;-75
2023/06/16 07:59:40;;;;;;;6.43;3.85;;;21.20;67.50;;;;;;5040162;28;20021;-73
2023/06/16 08:02:06;;;;;;;5.72;4.00;;;21.20;67.10;;;;;;5023008;28;20053;-74
2023/06/16 08:04:32;;;;;;;7.55;3.58;;;21.20;67.50;;;;;;5025050;28;20034;-74
2023/06/16 08:06:57;;;;;;;11.63;4.82;;;21.30;68.00;;;;;;5025453;28;20503;-75
2023/06/16 08:09:23;;;;;;;10.05;4.10;;;21.30;67.70;;;;;;5024944;28;20108;-74
2023/06/16 08:11:49;;;;;;;8.13;4.05;;;21.40;67.70;;;;;;5025481;28;20037;-76
2023/06/16 08:14:15;;;;;;;4.32;3.38;;;21.50;67.50;;;;;;5024917;28;20013;-74
2023/06/16 08:16:41;;;;;;;4.85;3.15;;;21.70;66.20;;;;;;5025413;28;20034;-72
2023/06/16 08:19:08;;;;;;;6.05;3.40;;;21.70;65.70;;;;;;5026069;28;20079;-70
2023/06/16 08:21:34;;;;;;;5.15;3.97;;;21.80;65.30;;;;;;5025202;28;20102;-71
2023/06/16 08:24:01;;;;;;;4.53;3.45;;;21.80;64.60;;;;;;5020544;28;20021;-71
2023/06/16 08:26:27;;;;;;;4.15;3.42;;;21.90;64.30;;;;;;5022833;28;20610;-71
2023/06/16 08:28:53;;;;;;;6.20;3.70;;;21.90;64.70;;;;;;5020692;28;20029;-71
2023/06/16 08:31:19;;;;;;;4.95;3.30;;;22.00;65.00;;;;;;5020182;28;20038;-71
2023/06/16 08:33:45;;;;;;;9.07;3.80;;;22.20;64.60;;;;;;5023510;28;20384;-72
2023/06/16 08:36:10;;;;;;;5.15;3.47;;;22.20;64.60;;;;;;5019665;28;20428;-70
2023/06/16 08:38:37;;;;;;;5.50;3.30;;;22.30;63.50;;;;;;5023911;28;20030;-70
2023/06/16 08:41:08;;;;;;;5.30;3.65;;;22.40;61.30;;;;;;5024180;28;20132;-75
2023/06/16 08:43:37;;;;;;;6.53;3.42;;;22.50;61.50;;;;;;5018656;28;20033;-72
2023/06/16 08:46:08;;;;;;;5.95;3.35;;;22.50;61.00;;;;;;5022483;28;20099;-74
2023/06/16 08:48:37;;;;;;;5.10;3.50;;;22.60;61.20;;;;;;5026576;28;20029;-73
2023/06/16 08:51:05;;;;;;;6.07;3.20;;;22.70;61.80;;;;;;5023038;28;20037;-74
2023/06/16 08:53:37;;;;;;;7.90;2.83;;;22.80;58.80;;;;;;5022852;28;20551;-75
2023/06/16 08:56:05;;;;;;;7.63;3.17;;;22.80;58.30;;;;;;5022903;28;20021;-72
2023/06/16 08:58:33;;;;;;;5.60;3.65;;;22.80;59.00;;;;;;5020902;28;20577;-74
2023/06/16 09:01:01;;;;;;;5.93;3.35;;;23.00;59.50;;;;;;5020130;28;20013;-72
2023/06/16 09:03:27;;;;;;;6.03;3.33;;;23.10;58.70;;;;;;5017446;28;20595;-73
2023/06/16 09:05:53;;;;;;;4.43;3.30;;;23.10;56.60;;;;;;5034205;28;20056;-72
2023/06/16 09:08:20;;;;;;;4.63;2.95;;;23.20;56.90;;;;;;5017289;28;20060;-74
2023/06/16 09:10:54;;;;;;;6.25;3.00;;;23.30;56.60;;;;;;5018727;28;20042;-73
2023/06/16 09:13:21;;;;;;;4.57;3.15;;;23.30;56.10;;;;;;5019201;28;20027;-74
2023/06/16 09:15:48;;;;;;;5.13;3.10;;;23.30;55.80;;;;;;5022823;28;20399;-75
2023/06/16 09:18:15;;;;;;;6.40;3.22;;;23.40;55.10;;;;;;5025835;28;20468;-74
2023/06/16 09:20:41;;;;;;;5.90;2.88;;;23.40;53.40;;;;;;5023546;28;20087;-72
2023/06/16 09:23:08;;;;;;;6.10;3.30;;;23.50;53.50;;;;;;5022111;28;20132;-75
2023/06/16 09:25:38;;;;;;;6.90;3.63;;;23.60;53.40;;;;;;5021015;28;20063;-74
2023/06/16 09:28:09;;;;;;;5.05;3.72;;;23.60;53.50;;;;;;5022041;28;20037;-75
2023/06/16 09:30:36;;;;;;;5.55;3.40;;;23.80;54.50;;;;;;5019119;28;20033;-72
2023/06/16 09:33:02;;;;;;;5.32;3.40;;;23.80;54.70;;;;;;5018743;28;20057;-73
2023/06/16 09:35:30;;;;;;;8.23;4.00;;;23.70;55.00;;;;;;5021929;28;20030;-73
2023/06/16 09:37:57;;;;;;;3.80;3.00;;;23.80;54.80;;;;;;5026789;28;20017;-72
2023/06/16 09:40:28;;;;;;;7.97;3.38;;;23.80;54.60;;;;;;5019022;28;20033;-72
2023/06/16 09:42:57;;;;;;;5.50;2.92;;;23.80;53.50;;;;;;5021164;28;20044;-75
2023/06/16 09:45:28;;;;;;;7.38;3.20;;;23.80;53.90;;;;;;5016898;28;20022;-76
2023/06/16 09:47:53;;;;;;;6.50;3.33;;;23.80;53.90;;;;;;5020024;28;20484;-75
2023/06/16 09:50:25;;;;;;;6.15;3.08;;;23.90;54.00;;;;;;5023569;28;20020;-77
2023/06/16 09:52:53;;;;;;;4.57;3.78;;;23.90;53.60;;;;;;5017420;28;20076;-75
2023/06/16 09:55:19;;;;;;;6.07;3.45;;;23.90;53.50;;;;;;5023430;28;20049;-75
2023/06/16 09:57:47;;;;;;;5.40;3.08;;;23.90;52.90;;;;;;5022568;28;20441;-74
2023/06/16 10:00:18;;;;;;;7.03;3.30;;;23.80;52.60;;;;;;5022677;28;20018;-73
2023/06/16 10:02:48;;;;;;;5.53;3.53;;;23.80;52.90;;;;;;5020338;28;20100;-74
2023/06/16 10:05:18;;;;;;;9.20;3.17;;;23.80;52.50;;;;;;5022097;28;20095;-74
2023/06/16 10:07:56;;;;;;;7.28;3.60;;;23.70;53.20;;;;;;5021318;28;20027;-73
2023/06/16 10:10:27;;;;;;;6.05;3.58;;;23.70;53.40;;;;;;5027534;28;20025;-76
2023/06/16 10:12:54;;;;;;;5.32;3.85;;;23.60;53.20;;;;;;5014993;28;20037;-74
2023/06/16 10:15:27;;;;;;;5.88;3.60;;;23.60;53.60;;;;;;5013841;28;20045;-73
2023/06/16 10:18:03;;;;;;;7.72;3.42;;;23.60;53.60;;;;;;5015010;28;20389;-74
2023/06/16 10:20:30;;;;;;;6.57;3.55;;;23.70;53.70;;;;;;5013801;28;20680;-73
2023/06/16 10:22:57;;;;;;;6.57;3.17;;;23.80;52.60;;;;;;5016262;28;20057;-76
2023/06/16 10:25:23;;;;;;;6.00;3.50;;;23.80;52.70;;;;;;5031648;28;20048;-75
2023/06/16 10:27:50;;;;;;;4.95;3.53;;;23.80;52.30;;;;;;5033635;28;20488;-76
2023/06/16 10:30:19;;;;;;;6.15;3.55;;;23.90;51.20;;;;;;5035113;28;20045;-75
2023/06/16 10:32:54;;;;;;;7.55;4.00;;;23.80;51.20;;;;;;5034854;28;20103;-73
2023/06/16 10:35:22;;;;;;;10.02;3.70;;;23.80;51.50;;;;;;5034226;28;20056;-75
2023/06/16 10:37:55;;;;;;;5.90;3.17;;;23.90;51.30;;;;;;5016604;28;20037;-74
2023/06/16 10:40:22;;;;;;;7.60;4.05;;;23.90;50.90;;;;;;5024403;28;20026;-73
2023/06/16 10:42:51;;;;;;;5.85;3.33;;;24.00;51.80;;;;;;5035153;28;20052;-74
2023/06/16 10:45:26;;;;;;;5.20;3.55;;;23.80;51.30;;;;;;5025928;28;20030;-74
2023/06/16 10:48:03;;;;;;;5.90;3.60;;;23.80;51.60;;;;;;5032084;28;20036;-76
2023/06/16 10:50:39;;;;;;;3.78;3.08;;;23.80;51.70;;;;;;5030051;28;20028;-74
2023/06/16 10:53:14;;;;;;;6.28;3.40;;;23.80;51.10;;;;;;5025773;28;20017;-75
2023/06/16 10:55:45;;;;;;;6.63;3.08;;;23.80;50.50;;;;;;5025979;28;20018;-75
2023/06/16 10:58:16;;;;;;;7.25;3.40;;;23.90;49.80;;;;;;5028894;28;20010;-75
2023/06/16 11:00:43;;;;;;;7.28;3.67;;;24.00;50.00;;;;;;5022892;28;20034;-75
2023/06/16 11:03:09;;;;;;;4.78;3.42;;;24.10;50.00;;;;;;5029997;28;20029;-75
2023/06/16 11:05:41;;;;;;;5.53;3.30;;;24.20;49.70;;;;;;5032278;28;20438;-75
2023/06/16 11:08:08;;;;;;;6.45;3.53;;;24.20;50.10;;;;;;5042863;28;20033;-75
2023/06/16 11:10:53;;;;;;;5.25;3.92;;;24.20;50.00;;;;;;5031732;28;20037;-73
2023/06/16 11:13:32;;;;;;;6.00;3.53;;;24.10;49.40;;;;;;5031988;28;20112;-73
2023/06/16 11:16:00;;;;;;;5.10;2.95;;;24.20;49.60;;;;;;5033541;28;20018;-74
2023/06/16 11:18:26;;;;;;;6.50;2.97;;;24.20;49.30;;;;;;5017789;28;20392;-74
2023/06/16 11:21:00;;;;;;;13.23;4.43;;;24.30;49.30;;;;;;5013768;28;20026;-74
2023/06/16 11:23:26;;;;;;;4.78;3.53;;;24.30;48.80;;;;;;5014005;28;20026;-75
2023/06/16 11:26:01;;;;;;;6.22;3.28;;;24.30;48.80;;;;;;5017950;28;20385;-74
2023/06/16 11:28:26;;;;;;;6.93;3.47;;;24.50;49.20;;;;;;5022774;28;20102;-74
2023/06/16 11:30:53;;;;;;;8.18;3.70;;;24.60;49.90;;;;;;5020374;28;20025;-74
2023/06/16 11:33:21;;;;;;;6.43;3.17;;;24.60;49.40;;;;;;5017326;28;20025;-75
2023/06/16 11:35:47;;;;;;;6.05;3.70;;;24.60;49.10;;;;;;5030917;28;20033;-73
2023/06/16 11:38:21;;;;;;;5.45;3.60;;;24.60;49.20;;;;;;5029949;28;20144;-74
2023/06/16 11:40:48;;;;;;;4.32;3.13;;;24.50;49.00;;;;;;5030208;28;20083;-75
2023/06/16 11:43:16;;;;;;;5.25;3.03;;;24.40;48.60;;;;;;5028683;28;20025;-75
2023/06/16 11:45:41;;;;;;;6.35;3.58;;;24.50;49.10;;;;;;5028378;28;20041;-75
2023/06/16 11:48:09;;;;;;;8.85;3.72;;;24.50;49.10;;;;;;5030323;28;20045;-75
2023/06/16 11:50:36;;;;;;;8.90;3.60;;;24.60;49.50;;;;;;5028794;28;20091;-76
2023/06/16 11:53:01;;;;;;;10.80;4.35;;;24.60;49.20;;;;;;5027524;28;20037;-76
2023/06/16 11:55:27;;;;;;;5.28;3.67;;;24.80;49.00;;;;;;5028218;28;20427;-73
2023/06/16 11:57:53;;;;;;;8.55;3.88;;;24.80;48.90;;;;;;5031350;28;21234;-75
2023/06/16 12:00:21;;;;;;;7.13;3.53;;;24.80;48.90;;;;;;5028911;28;20084;-76
2023/06/16 12:02:48;;;;;;;4.18;3.58;;;24.70;48.00;;;;;;5024319;28;20025;-75
2023/06/16 12:05:19;;;;;;;6.75;3.45;;;24.60;48.20;;;;;;5024005;28;20405;-75
2023/06/16 12:07:46;;;;;;;6.55;3.38;;;24.60;48.60;;;;;;5019447;28;20018;-75
2023/06/16 12:10:11;;;;;;;5.45;3.35;;;24.60;48.70;;;;;;5030912;28;20421;-75
2023/06/16 12:12:38;;;;;;;4.80;3.50;;;24.60;49.00;;;;;;5032369;28;20101;-75
2023/06/16 12:15:05;;;;;;;4.60;3.30;;;24.60;48.60;;;;;;5028926;28;20431;-75
2023/06/16 12:17:33;;;;;;;9.18;4.45;;;24.60;49.00;;;;;;5025150;28;20021;-75
2023/06/16 12:19:58;;;;;;;7.95;4.35;;;24.60;48.20;;;;;;5029080;28;20412;-77
2023/06/16 12:22:35;;;;;;;11.27;3.30;;;24.70;49.00;;;;;;5024495;28;20039;-76
2023/06/16 12:25:00;;;;;;;5.70;4.05;;;24.70;48.40;;;;;;5022693;28;20495;-74
2023/06/16 12:27:26;;;;;;;5.15;3.50;;;24.60;49.20;;;;;;5027140;28;20033;-75
2023/06/16 12:29:59;;;;;;;13.75;4.32;;;24.60;48.80;;;;;;5022341;28;20026;-76
2023/06/16 12:32:33;;;;;;;5.83;3.87;;;24.60;48.40;;;;;;5017749;28;20025;-74
2023/06/16 12:34:58;;;;;;;;;;;24.60;48.90;;;;;;5024551;28;20018;-74
2023/06/16 12:37:30;;;;;;;6.03;3.97;;;24.60;48.50;;;;;;5026298;28;19920;-74
2023/06/16 12:40:11;;;;;;;7.35;3.90;;;24.60;48.60;;;;;;5027078;28;20041;-75
2023/06/16 12:42:37;;;;;;;6.72;3.30;;;24.60;48.90;;;;;;5019431;28;20022;-75
2023/06/16 12:45:05;;;;;;;5.03;3.30;;;24.60;48.30;;;;;;5021700;28;20060;-76
2023/06/16 12:47:34;;;;;;;7.50;4.03;;;24.70;48.40;;;;;;5027074;28;20037;-76